Time;durP1;ratioP1;P1;durP2;ratioP2;P2;SDS_P1;SDS_P2;PMS_P1;PMS_P2;Temp;Humidity;BMP_temperature;BMP_pressure;BME280_temperature;BME280_humidity;BME280_pressure;Samples;Min_cycle;Max_cycle;Signal;HPM_P1;HPM_P2
2022/03/07 00:01:33;;;;;;;9.57;7.60;;;;;;;;;;7357846;19;20203;-45
2022/03/07 00:04:03;;;;;;;11.60;8.80;;;;;;;;;;7355389;19;20132;-45
2022/03/07 00:06:33;;;;;;;9.60;8.60;;;;;;;;;;7359261;19;20139;-46
2022/03/07 00:09:03;;;;;;;10.50;8.52;;;;;;;;;;7358480;19;20197;-46
2022/03/07 00:11:35;;;;;;;11.02;8.95;;;;;;;;;;7356539;19;20504;-45
2022/03/07 00:14:07;;;;;;;11.20;8.80;;;;;;;;;;7357700;19;20135;-46
2022/03/07 00:16:39;;;;;;;11.50;9.18;;;;;;;;;;7362930;19;20128;-45
2022/03/07 00:19:09;;;;;;;12.68;9.20;;;;;;;;;;7354616;19;20620;-45
2022/03/07 00:21:39;;;;;;;8.95;7.55;;;;;;;;;;7359174;19;20128;-46
2022/03/07 00:24:09;;;;;;;10.23;9.02;;;;;;;;;;7363216;19;20135;-45
2022/03/07 00:26:41;;;;;;;10.45;8.35;;;;;;;;;;7359931;19;20132;-46
2022/03/07 00:29:13;;;;;;;9.52;7.90;;;;;;;;;;7365607;19;20621;-45
2022/03/07 00:31:43;;;;;;;11.45;8.43;;;;;;;;;;7359403;19;20593;-45
2022/03/07 00:34:13;;;;;;;9.55;7.80;;;;;;;;;;7361808;19;20183;-44
2022/03/07 00:36:44;;;;;;;9.73;7.80;;;;;;;;;;7365312;19;20132;-44
2022/03/07 00:39:17;;;;;;;8.40;7.50;;;;;;;;;;7361431;19;20131;-44
2022/03/07 00:41:49;;;;;;;9.98;8.38;;;;;;;;;;7363018;19;20146;-44
2022/03/07 00:44:21;;;;;;;7.63;6.82;;;;;;;;;;7361302;19;20135;-45
2022/03/07 00:46:56;;;;;;;10.82;7.25;;;;;;;;;;7361409;19;20176;-45
2022/03/07 00:49:29;;;;;;;8.45;7.40;;;;;;;;;;7364622;19;20140;-45
2022/03/07 00:51:59;;;;;;;9.32;7.63;;;;;;;;;;7364402;19;20127;-45
2022/03/07 00:54:33;;;;;;;14.00;7.70;;;;;;;;;;7364438;19;20155;-45
2022/03/07 00:57:08;;;;;;;8.73;7.40;;;;;;;;;;7362975;19;20156;-45
2022/03/07 00:59:38;;;;;;;7.95;6.85;;;;;;;;;;7366161;19;20972;-44
2022/03/07 01:02:07;;;;;;;10.35;7.68;;;;;;;;;;7366408;19;20131;-44
2022/03/07 01:04:39;;;;;;;8.60;6.75;;;;;;;;;;7363687;19;20147;-43
2022/03/07 01:07:10;;;;;;;10.10;7.63;;;;;;;;;;7365304;19;20578;-43
2022/03/07 01:09:42;;;;;;;10.23;7.60;;;;;;;;;;7364704;19;20849;-42
2022/03/07 01:12:14;;;;;;;10.90;7.60;;;;;;;;;;7354103;19;20128;-45
2022/03/07 01:14:44;;;;;;;8.02;7.22;;;;;;;;;;7364202;19;20135;-44
2022/03/07 01:17:14;;;;;;;7.20;6.50;;;;;;;;;;7355938;19;20142;-43
2022/03/07 01:19:47;;;;;;;8.88;7.20;;;;;;;;;;7368312;19;20177;-44
2022/03/07 01:22:19;;;;;;;8.38;7.15;;;;;;;;;;7378405;19;20128;-43
2022/03/07 01:24:51;;;;;;;7.85;7.05;;;;;;;;;;7376346;19;20120;-43
2022/03/07 01:27:23;;;;;;;10.95;7.60;;;;;;;;;;7377172;19;20132;-44
2022/03/07 01:29:55;;;;;;;8.50;7.07;;;;;;;;;;7377662;19;20490;-45
2022/03/07 01:32:25;;;;;;;9.65;7.88;;;;;;;;;;7374082;19;20143;-45
2022/03/07 01:34:56;;;;;;;8.60;6.25;;;;;;;;;;7371143;19;20163;-44
2022/03/07 01:37:26;;;;;;;9.02;7.55;;;;;;;;;;7376114;19;20135;-45
2022/03/07 01:39:56;;;;;;;6.65;5.90;;;;;;;;;;7377378;19;20133;-45
2022/03/07 01:42:28;;;;;;;7.68;6.25;;;;;;;;;;7377017;19;20128;-45
2022/03/07 01:45:09;;;;;;;12.13;7.45;;;;;;;;;;7375637;19;21068;-45
2022/03/07 01:47:41;;;;;;;8.82;6.35;;;;;;;;;;7375171;19;20142;-46
2022/03/07 01:50:12;;;;;;;7.47;6.40;;;;;;;;;;7372187;19;20203;-45
2022/03/07 01:52:44;;;;;;;6.65;5.63;;;;;;;;;;7375095;19;20470;-45
2022/03/07 01:55:17;;;;;;;8.68;7.15;;;;;;;;;;7373735;19;20133;-45
2022/03/07 01:57:56;;;;;;;8.27;7.13;;;;;;;;;;7374520;19;20154;-45
2022/03/07 02:00:29;;;;;;;7.50;6.40;;;;;;;;;;7371376;19;20743;-45
2022/03/07 02:03:01;;;;;;;9.65;6.43;;;;;;;;;;7374199;19;20138;-45
2022/03/07 02:05:43;;;;;;;10.88;7.00;;;;;;;;;;7369916;19;20146;-45
2022/03/07 02:08:19;;;;;;;7.22;5.85;;;;;;;;;;7373444;19;20813;-44
2022/03/07 02:10:59;;;;;;;8.38;6.70;;;;;;;;;;7371620;19;20575;-45
2022/03/07 02:13:33;;;;;;;6.40;5.43;;;;;;;;;;7371329;19;20784;-45
2022/03/07 02:16:07;;;;;;;8.30;6.47;;;;;;;;;;7370924;19;20140;-45
2022/03/07 02:18:37;;;;;;;10.50;6.63;;;;;;;;;;7372583;19;20143;-46
2022/03/07 02:21:16;;;;;;;12.23;6.35;;;;;;;;;;7373489;19;20500;-45
2022/03/07 02:24:05;;;;;;;7.28;6.57;;;;;;;;;;7368130;19;20484;-45
2022/03/07 02:26:37;;;;;;;7.32;6.35;;;;;;;;;;7364542;19;20162;-45
2022/03/07 02:29:11;;;;;;;9.13;7.20;;;;;;;;;;7373537;19;20161;-44
2022/03/07 02:31:44;;;;;;;8.65;6.53;;;;;;;;;;7370516;19;20130;-44
2022/03/07 02:34:17;;;;;;;8.90;6.00;;;;;;;;;;7373241;19;20178;-44
2022/03/07 02:36:50;;;;;;;7.70;6.32;;;;;;;;;;7370154;19;20192;-44
2022/03/07 02:39:27;;;;;;;7.85;6.72;;;;;;;;;;7371426;19;20127;-46
2022/03/07 02:41:59;;;;;;;8.57;6.75;;;;;;;;;;7370575;19;20138;-45
2022/03/07 02:44:32;;;;;;;9.65;6.05;;;;;;;;;;7368078;19;20138;-45
2022/03/07 02:47:02;;;;;;;8.95;6.20;;;;;;;;;;7364827;19;20772;-45
2022/03/07 02:49:32;;;;;;;7.80;5.50;;;;;;;;;;7365121;19;20127;-45
2022/03/07 02:52:04;;;;;;;8.52;5.97;;;;;;;;;;7369490;19;20128;-44
2022/03/07 02:54:38;;;;;;;7.70;6.88;;;;;;;;;;7368156;19;20139;-45
2022/03/07 02:57:07;;;;;;;9.13;7.50;;;;;;;;;;7372744;19;20732;-45
2022/03/07 02:59:39;;;;;;;8.75;6.72;;;;;;;;;;7367807;19;20135;-43
2022/03/07 03:02:11;;;;;;;9.77;7.10;;;;;;;;;;7370373;19;20515;-45
2022/03/07 03:04:41;;;;;;;7.88;5.75;;;;;;;;;;7373944;19;20143;-44
2022/03/07 03:07:13;;;;;;;9.07;6.75;;;;;;;;;;7371699;19;20134;-45
2022/03/07 03:09:48;;;;;;;8.40;7.50;;;;;;;;;;7370919;19;20717;-44
2022/03/07 03:12:24;;;;;;;11.40;7.93;;;;;;;;;;7370966;19;20136;-45
2022/03/07 03:14:56;;;;;;;7.80;6.47;;;;;;;;;;7371448;19;20168;-44
2022/03/07 03:17:28;;;;;;;10.75;7.88;;;;;;;;;;7371186;19;20161;-44
2022/03/07 03:19:58;;;;;;;9.38;7.15;;;;;;;;;;7366739;19;20127;-45
2022/03/07 03:22:27;;;;;;;10.40;7.88;;;;;;;;;;7370909;19;20251;-44
2022/03/07 03:25:00;;;;;;;8.32;6.00;;;;;;;;;;7372902;19;20128;-45
2022/03/07 03:27:29;;;;;;;11.70;7.43;;;;;;;;;;7357690;19;20239;-44
2022/03/07 03:29:59;;;;;;;11.30;7.10;;;;;;;;;;7358951;19;20602;-46
2022/03/07 03:32:30;;;;;;;6.82;6.13;;;;;;;;;;7354567;19;20602;-45
2022/03/07 03:34:59;;;;;;;11.38;7.25;;;;;;;;;;7358202;19;20152;-45
2022/03/07 03:37:29;;;;;;;10.38;6.85;;;;;;;;;;7356468;19;20667;-45
2022/03/07 03:40:01;;;;;;;10.52;7.90;;;;;;;;;;7358090;19;20640;-44
2022/03/07 03:42:31;;;;;;;7.35;6.50;;;;;;;;;;7355957;19;20138;-45
2022/03/07 03:45:01;;;;;;;10.60;7.68;;;;;;;;;;7355452;19;20134;-45
2022/03/07 03:47:32;;;;;;;9.15;6.63;;;;;;;;;;7364004;19;20140;-44
2022/03/07 03:50:02;;;;;;;9.68;7.43;;;;;;;;;;7355908;19;20123;-44
2022/03/07 03:52:35;;;;;;;9.88;7.15;;;;;;;;;;7355436;19;20149;-44
2022/03/07 03:55:08;;;;;;;7.22;6.50;;;;;;;;;;7356908;19;20152;-45
2022/03/07 03:57:39;;;;;;;8.90;7.50;;;;;;;;;;7355135;19;20919;-44
2022/03/07 04:00:10;;;;;;;7.60;6.90;;;;;;;;;;7363973;19;20227;-42
2022/03/07 04:02:43;;;;;;;8.38;6.68;;;;;;;;;;7369119;19;20127;-42
2022/03/07 04:05:13;;;;;;;8.20;7.25;;;;;;;;;;7360822;19;20492;-44
2022/03/07 04:07:47;;;;;;;10.85;7.78;;;;;;;;;;7360587;19;20139;-43
2022/03/07 04:10:21;;;;;;;9.00;7.43;;;;;;;;;;7357797;19;20216;-43
2022/03/07 04:12:53;;;;;;;10.20;7.88;;;;;;;;;;7358716;19;20154;-42
2022/03/07 04:15:26;;;;;;;10.75;7.05;;;;;;;;;;7359036;19;20150;-44
2022/03/07 04:17:56;;;;;;;9.63;6.55;;;;;;;;;;7360407;19;20123;-43
2022/03/07 04:20:31;;;;;;;9.65;7.95;;;;;;;;;;7360817;19;20170;-43
2022/03/07 04:23:00;;;;;;;8.07;7.15;;;;;;;;;;7351815;19;20202;-43
2022/03/07 04:25:33;;;;;;;9.88;6.95;;;;;;;;;;7367677;19;20128;-43
2022/03/07 04:28:05;;;;;;;11.23;7.38;;;;;;;;;;7366060;19;20593;-43
2022/03/07 04:30:35;;;;;;;10.27;7.30;;;;;;;;;;7361974;19;20153;-46
2022/03/07 04:33:04;;;;;;;9.45;7.15;;;;;;;;;;7361357;19;20147;-45
2022/03/07 04:35:34;;;;;;;9.23;7.45;;;;;;;;;;7362251;19;20665;-45
2022/03/07 04:38:04;;;;;;;10.45;7.90;;;;;;;;;;7362897;19;20140;-45
2022/03/07 04:40:36;;;;;;;9.40;7.53;;;;;;;;;;7361955;19;20127;-46
2022/03/07 04:43:06;;;;;;;11.32;8.02;;;;;;;;;;7365421;19;20146;-45
2022/03/07 04:45:38;;;;;;;9.80;6.90;;;;;;;;;;7361774;19;20131;-44
2022/03/07 04:48:07;;;;;;;11.25;7.97;;;;;;;;;;7362428;19;20127;-45
2022/03/07 04:50:37;;;;;;;13.82;8.70;;;;;;;;;;7364221;19;20134;-45
2022/03/07 04:53:07;;;;;;;9.00;7.55;;;;;;;;;;7358327;19;20730;-44
2022/03/07 04:55:39;;;;;;;11.90;8.38;;;;;;;;;;7364176;19;20135;-44
2022/03/07 04:58:09;;;;;;;11.23;7.93;;;;;;;;;;7362261;19;20542;-43
2022/03/07 05:00:41;;;;;;;9.73;8.00;;;;;;;;;;7357314;19;20537;-44
2022/03/07 05:03:11;;;;;;;9.10;7.38;;;;;;;;;;7359210;19;20187;-45
2022/03/07 05:05:43;;;;;;;11.00;8.30;;;;;;;;;;7366238;19;20630;-45
2022/03/07 05:08:15;;;;;;;14.13;8.27;;;;;;;;;;7359956;19;20395;-45
2022/03/07 05:10:47;;;;;;;16.30;8.88;;;;;;;;;;7357960;19;20332;-44
2022/03/07 05:13:17;;;;;;;14.13;9.80;;;;;;;;;;7356009;19;20191;-45
2022/03/07 05:15:46;;;;;;;12.32;9.00;;;;;;;;;;7363853;19;20131;-44
2022/03/07 05:18:17;;;;;;;12.48;9.43;;;;;;;;;;7361091;19;20149;-45
2022/03/07 05:20:49;;;;;;;13.80;9.40;;;;;;;;;;7367491;19;20520;-45
2022/03/07 05:23:19;;;;;;;12.55;8.80;;;;;;;;;;7357880;19;20847;-44
2022/03/07 05:25:51;;;;;;;14.32;8.55;;;;;;;;;;7365013;19;20148;-44
2022/03/07 05:28:21;;;;;;;15.93;9.68;;;;;;;;;;7363776;19;20150;-45
2022/03/07 05:30:50;;;;;;;15.63;8.68;;;;;;;;;;7344328;19;20127;-45
2022/03/07 05:33:22;;;;;;;12.80;9.38;;;;;;;;;;7359090;19;20147;-45
2022/03/07 05:35:52;;;;;;;13.90;9.57;;;;;;;;;;7341192;19;20543;-44
2022/03/07 05:38:24;;;;;;;12.70;9.63;;;;;;;;;;7352720;19;20152;-47
2022/03/07 05:40:58;;;;;;;13.50;9.60;;;;;;;;;;7353229;19;20143;-44
2022/03/07 05:43:28;;;;;;;11.52;8.80;;;;;;;;;;7349676;19;20669;-45
2022/03/07 05:45:58;;;;;;;10.05;8.23;;;;;;;;;;7359816;19;20140;-45
2022/03/07 05:48:27;;;;;;;12.70;9.27;;;;;;;;;;7357892;19;20491;-44
2022/03/07 05:50:57;;;;;;;12.05;8.35;;;;;;;;;;7364453;19;20147;-44
2022/03/07 05:53:29;;;;;;;12.43;9.65;;;;;;;;;;7343436;19;20222;-43
2022/03/07 05:56:01;;;;;;;16.52;10.05;;;;;;;;;;7353073;19;20138;-45
2022/03/07 05:58:30;;;;;;;14.25;9.35;;;;;;;;;;7352450;19;20142;-46
2022/03/07 06:01:00;;;;;;;13.10;8.43;;;;;;;;;;7361833;19;20131;-46
2022/03/07 06:03:30;;;;;;;17.13;9.70;;;;;;;;;;7359863;19;20150;-44
2022/03/07 06:05:59;;;;;;;15.85;9.75;;;;;;;;;;7347246;19;20135;-45
2022/03/07 06:08:35;;;;;;;13.70;9.70;;;;;;;;;;7361898;19;20207;-45
2022/03/07 06:11:08;;;;;;;14.25;9.05;;;;;;;;;;7358434;19;20131;-45
2022/03/07 06:13:38;;;;;;;11.57;8.65;;;;;;;;;;7361103;19;20223;-45
2022/03/07 06:16:07;;;;;;;15.05;9.90;;;;;;;;;;7366433;19;20486;-45
2022/03/07 06:18:37;;;;;;;14.02;9.32;;;;;;;;;;7369327;19;20701;-46
2022/03/07 06:21:08;;;;;;;17.70;9.52;;;;;;;;;;7372318;19;20139;-47
2022/03/07 06:23:38;;;;;;;14.60;9.20;;;;;;;;;;7376804;19;20503;-45
2022/03/07 06:26:10;;;;;;;14.98;8.98;;;;;;;;;;7377820;19;20269;-44
2022/03/07 06:28:42;;;;;;;13.02;8.18;;;;;;;;;;7375010;19;20135;-45
2022/03/07 06:31:12;;;;;;;15.13;9.48;;;;;;;;;;7374737;19;20139;-44
2022/03/07 06:33:47;;;;;;;16.15;9.38;;;;;;;;;;7370572;19;20598;-45
2022/03/07 06:36:19;;;;;;;10.95;7.93;;;;;;;;;;7375440;19;20617;-45
2022/03/07 06:38:48;;;;;;;12.63;7.68;;;;;;;;;;7370633;19;20169;-44
2022/03/07 06:41:24;;;;;;;13.02;8.60;;;;;;;;;;7370559;19;20629;-45
2022/03/07 06:43:56;;;;;;;10.90;8.30;;;;;;;;;;7371770;19;20158;-45
2022/03/07 06:46:31;;;;;;;13.27;9.25;;;;;;;;;;7374237;19;21131;-45
2022/03/07 06:49:01;;;;;;;11.52;7.78;;;;;;;;;;7373234;19;20602;-45
2022/03/07 06:51:30;;;;;;;12.40;7.97;;;;;;;;;;7375014;19;20599;-45
2022/03/07 06:54:02;;;;;;;13.23;9.35;;;;;;;;;;7366522;19;20139;-45
2022/03/07 06:56:36;;;;;;;13.13;8.95;;;;;;;;;;7362532;19;20175;-45
2022/03/07 06:59:08;;;;;;;10.38;7.47;;;;;;;;;;7367789;19;20203;-44
2022/03/07 07:01:38;;;;;;;10.60;7.80;;;;;;;;;;7364025;19;20127;-45
2022/03/07 07:04:08;;;;;;;14.35;8.30;;;;;;;;;;7371753;19;20143;-44
2022/03/07 07:06:37;;;;;;;11.07;7.60;;;;;;;;;;7367814;19;20142;-45
2022/03/07 07:09:09;;;;;;;11.70;7.90;;;;;;;;;;7370799;19;20960;-45
2022/03/07 07:11:44;;;;;;;11.98;8.93;;;;;;;;;;7371193;19;20143;-43
2022/03/07 07:14:18;;;;;;;9.25;7.53;;;;;;;;;;7373148;19;20146;-43
2022/03/07 07:16:48;;;;;;;10.27;7.70;;;;;;;;;;7376270;19;20135;-43
2022/03/07 07:19:20;;;;;;;12.07;8.45;;;;;;;;;;7370930;19;20164;-43
2022/03/07 07:21:52;;;;;;;10.77;7.80;;;;;;;;;;7368601;19;20135;-43
2022/03/07 07:24:22;;;;;;;12.25;8.15;;;;;;;;;;7365993;19;20559;-42
2022/03/07 07:26:57;;;;;;;13.90;8.32;;;;;;;;;;7373171;19;20191;-43
2022/03/07 07:29:26;;;;;;;9.40;7.28;;;;;;;;;;7370744;19;20198;-43
2022/03/07 07:32:02;;;;;;;10.00;7.65;;;;;;;;;;7366377;19;20677;-43
2022/03/07 07:34:33;;;;;;;12.00;8.18;;;;;;;;;;7369856;19;20315;-43
2022/03/07 07:37:03;;;;;;;9.70;7.80;;;;;;;;;;7371545;19;20134;-43
2022/03/07 07:39:33;;;;;;;10.30;7.50;;;;;;;;;;7368365;19;20140;-45
2022/03/07 07:42:05;;;;;;;12.00;8.98;;;;;;;;;;7368745;19;20875;-45
2022/03/07 07:44:44;;;;;;;13.18;8.35;;;;;;;;;;7371612;19;20131;-45
2022/03/07 07:47:13;;;;;;;12.07;7.50;;;;;;;;;;7371057;19;20147;-45
2022/03/07 07:49:45;;;;;;;12.93;8.32;;;;;;;;;;7368558;19;20127;-45
2022/03/07 07:52:17;;;;;;;10.90;8.20;;;;;;;;;;7370590;19;20633;-45
2022/03/07 07:54:49;;;;;;;12.30;8.25;;;;;;;;;;7374011;19;20151;-45
2022/03/07 07:57:21;;;;;;;12.10;8.30;;;;;;;;;;7367732;19;20210;-45
2022/03/07 07:59:51;;;;;;;12.93;8.52;;;;;;;;;;7364704;19;21514;-45
2022/03/07 08:02:23;;;;;;;11.65;8.38;;;;;;;;;;7366675;19;20127;-44
2022/03/07 08:04:53;;;;;;;11.10;8.65;;;;;;;;;;7368250;19;20627;-46
2022/03/07 08:07:22;;;;;;;10.68;7.80;;;;;;;;;;7367609;19;20140;-44
2022/03/07 08:09:52;;;;;;;11.40;8.30;;;;;;;;;;7372715;19;20131;-45
2022/03/07 08:12:25;;;;;;;11.25;7.78;;;;;;;;;;7366169;19;20671;-45
2022/03/07 08:14:55;;;;;;;10.98;8.43;;;;;;;;;;7369892;19;20143;-44
2022/03/07 08:17:27;;;;;;;12.68;8.52;;;;;;;;;;7367045;19;20236;-46
2022/03/07 08:20:02;;;;;;;11.27;8.68;;;;;;;;;;7369388;19;20139;-45
2022/03/07 08:22:33;;;;;;;11.70;8.35;;;;;;;;;;7363932;19;20136;-45
2022/03/07 08:25:06;;;;;;;10.65;7.75;;;;;;;;;;7373450;19;20136;-46
2022/03/07 08:27:41;;;;;;;10.95;8.40;;;;;;;;;;7372823;19;20124;-45
2022/03/07 08:30:12;;;;;;;10.88;8.95;;;;;;;;;;7370122;19;20137;-46
2022/03/07 08:32:43;;;;;;;14.48;8.82;;;;;;;;;;7367771;19;20811;-46
2022/03/07 08:35:13;;;;;;;9.57;8.18;;;;;;;;;;7362459;19;20163;-45
2022/03/07 08:37:49;;;;;;;12.73;9.10;;;;;;;;;;7370582;19;20142;-45
2022/03/07 08:40:21;;;;;;;11.05;8.85;;;;;;;;;;7372676;19;20128;-44
2022/03/07 08:42:56;;;;;;;10.15;8.88;;;;;;;;;;7369484;19;20140;-45
2022/03/07 08:45:28;;;;;;;10.50;8.52;;;;;;;;;;7376155;19;20141;-45
2022/03/07 08:47:58;;;;;;;11.90;9.23;;;;;;;;;;7369073;19;20657;-45
2022/03/07 08:50:30;;;;;;;13.98;9.43;;;;;;;;;;7375493;19;20150;-45
2022/03/07 08:53:02;;;;;;;10.02;8.10;;;;;;;;;;7366738;19;20142;-45
2022/03/07 08:55:34;;;;;;;14.57;9.80;;;;;;;;;;7376032;19;20127;-46
2022/03/07 08:58:08;;;;;;;10.43;8.70;;;;;;;;;;7378039;19;20119;-45
2022/03/07 09:00:38;;;;;;;10.02;8.40;;;;;;;;;;7373399;19;20128;-45
2022/03/07 09:03:13;;;;;;;11.48;9.73;;;;;;;;;;7380398;19;20182;-46
2022/03/07 09:05:43;;;;;;;9.60;8.60;;;;;;;;;;7377748;19;20610;-46
2022/03/07 09:08:15;;;;;;;10.50;7.80;;;;;;;;;;7379872;19;20546;-46
2022/03/07 09:10:47;;;;;;;9.47;8.13;;;;;;;;;;7370927;19;21019;-46
2022/03/07 09:13:19;;;;;;;10.53;9.00;;;;;;;;;;7377730;19;20373;-46
2022/03/07 09:15:52;;;;;;;16.00;8.80;;;;;;;;;;7381720;19;20853;-46
2022/03/07 09:18:22;;;;;;;12.87;9.00;;;;;;;;;;7378943;19;20368;-46
2022/03/07 09:20:54;;;;;;;10.40;9.27;;;;;;;;;;7377572;19;21393;-47
2022/03/07 09:23:24;;;;;;;11.53;9.37;;;;;;;;;;7377732;19;20476;-45
2022/03/07 09:25:56;;;;;;;10.27;9.27;;;;;;;;;;7379720;19;20380;-46
2022/03/07 09:28:28;;;;;;;9.97;8.63;;;;;;;;;;7379525;19;20987;-47
2022/03/07 09:30:58;;;;;;;11.70;8.20;;;;;;;;;;7380268;19;20384;-46
2022/03/07 09:33:30;;;;;;;11.03;8.73;;;;;;;;;;7373393;19;20384;-47
2022/03/07 09:36:00;;;;;;;9.30;8.30;;;;;;;;;;7375181;19;20436;-46
2022/03/07 09:38:31;;;;;;;10.00;8.30;;;;;;;;;;7376067;19;20977;-49
2022/03/07 09:41:01;;;;;;;10.30;9.20;;;;;;;;;;7374146;19;20914;-47
2022/03/07 09:43:34;;;;;;;9.60;8.60;;;;;;;;;;7379066;19;20413;-46
2022/03/07 09:46:03;;;;;;;9.13;8.30;;;;;;;;;;7376870;19;20425;-47
2022/03/07 09:48:35;;;;;;;12.40;9.03;;;;;;;;;;7373700;19;20380;-48
2022/03/07 09:51:07;;;;;;;10.73;9.70;;;;;;;;;;7378340;19;20975;-47
2022/03/07 09:53:37;;;;;;;11.50;8.63;;;;;;;;;;7374428;19;20446;-47
2022/03/07 09:56:09;;;;;;;10.17;9.17;;;;;;;;;;7374458;19;20930;-46
2022/03/07 09:58:41;;;;;;;9.80;9.00;;;;;;;;;;7378177;19;20372;-46
2022/03/07 10:01:13;;;;;;;10.50;9.40;;;;;;;;;;7375095;19;20380;-46
2022/03/07 10:03:45;;;;;;;9.40;8.50;;;;;;;;;;7374740;19;20404;-47
2022/03/07 10:06:15;;;;;;;9.00;8.20;;;;;;;;;;7377490;19;20372;-47
2022/03/07 10:08:54;;;;;;;10.57;9.40;;;;;;;;;;7373213;19;20379;-47
2022/03/07 10:11:24;;;;;;;10.07;9.07;;;;;;;;;;7373689;19;20368;-47
2022/03/07 10:13:57;;;;;;;9.60;8.70;;;;;;;;;;7371125;19;20394;-47
2022/03/07 10:16:41;;;;;;;11.17;10.07;;;;;;;;;;7372458;19;20379;-47
2022/03/07 10:19:14;;;;;;;10.83;9.80;;;;;;;;;;7375237;19;20785;-47
2022/03/07 10:21:50;;;;;;;9.47;8.67;;;;;;;;;;7375871;19;20379;-47
2022/03/07 10:24:19;;;;;;;11.00;9.90;;;;;;;;;;7373164;19;20416;-46
2022/03/07 10:26:49;;;;;;;11.30;9.50;;;;;;;;;;7372868;19;20409;-46
2022/03/07 10:29:21;;;;;;;10.87;9.77;;;;;;;;;;7372077;19;20413;-46
2022/03/07 10:31:51;;;;;;;10.67;9.47;;;;;;;;;;7376400;19;20905;-46
2022/03/07 10:34:26;;;;;;;10.87;9.70;;;;;;;;;;7374364;19;21125;-46
2022/03/07 10:36:56;;;;;;;11.03;9.60;;;;;;;;;;7375269;19;20383;-46
2022/03/07 10:39:27;;;;;;;12.10;10.00;;;;;;;;;;7375806;19;20380;-46
2022/03/07 10:41:57;;;;;;;11.50;9.47;;;;;;;;;;7372469;19;20874;-46
2022/03/07 10:44:37;;;;;;;10.60;9.50;;;;;;;;;;7374108;19;20394;-47
2022/03/07 10:47:13;;;;;;;14.77;11.20;;;;;;;;;;7375712;19;20375;-46
2022/03/07 10:49:53;;;;;;;10.40;9.33;;;;;;;;;;7373140;19;20372;-46
2022/03/07 10:52:26;;;;;;;12.43;9.60;;;;;;;;;;7372848;19;20438;-46
2022/03/07 10:54:56;;;;;;;12.00;9.47;;;;;;;;;;7372334;19;20384;-45
2022/03/07 10:57:25;;;;;;;10.87;9.77;;;;;;;;;;7376557;19;20384;-47
2022/03/07 11:00:05;;;;;;;14.03;11.63;;;;;;;;;;7372644;19;20421;-46
2022/03/07 11:02:42;;;;;;;10.80;9.37;;;;;;;;;;7375582;19;20912;-47
2022/03/07 11:05:14;;;;;;;10.90;9.57;;;;;;;;;;7371787;19;20415;-47
2022/03/07 11:07:47;;;;;;;11.20;9.40;;;;;;;;;;7371050;19;20393;-47
2022/03/07 11:10:17;;;;;;;10.60;9.30;;;;;;;;;;7364382;19;20372;-47
2022/03/07 11:12:47;;;;;;;12.27;9.13;;;;;;;;;;7371962;19;20379;-47
2022/03/07 11:15:20;;;;;;;11.20;10.10;;;;;;;;;;7373247;19;20367;-46
2022/03/07 11:17:50;;;;;;;11.30;10.17;;;;;;;;;;7370378;19;25210;-46
2022/03/07 11:20:20;;;;;;;13.30;9.60;;;;;;;;;;7372537;19;21330;-46
2022/03/07 11:22:52;;;;;;;12.90;10.87;;;;;;;;;;7374307;19;20401;-46
2022/03/07 11:25:25;;;;;;;12.47;9.90;;;;;;;;;;7373498;19;20463;-46
2022/03/07 11:27:54;;;;;;;14.20;9.53;;;;;;;;;;7376019;19;20721;-46
2022/03/07 11:30:29;;;;;;;13.10;10.67;;;;;;;;;;7374980;19;20383;-46
2022/03/07 11:32:59;;;;;;;11.30;9.50;;;;;;;;;;7373395;19;20469;-47
2022/03/07 11:35:35;;;;;;;14.70;10.33;;;;;;;;;;7372583;19;20437;-46
2022/03/07 11:38:12;;;;;;;11.90;9.80;;;;;;;;;;7376273;19;20380;-46
2022/03/07 11:40:57;;;;;;;10.67;8.97;;;;;;;;;;7375306;19;20391;-46
2022/03/07 11:43:29;;;;;;;12.00;9.17;;;;;;;;;;7374465;19;20384;-45
2022/03/07 11:46:03;;;;;;;10.73;9.60;;;;;;;;;;7373270;19;20753;-46
2022/03/07 11:48:34;;;;;;;11.83;10.07;;;;;;;;;;7361171;19;20368;-46
2022/03/07 11:51:17;;;;;;;12.93;10.00;;;;;;;;;;7373249;19;20383;-45
2022/03/07 11:53:53;;;;;;;11.07;9.17;;;;;;;;;;7371968;19;20376;-45
2022/03/07 11:56:24;;;;;;;12.67;9.60;;;;;;;;;;7369139;19;20451;-45
2022/03/07 11:58:56;;;;;;;12.30;9.50;;;;;;;;;;7370833;19;20384;-45
2022/03/07 12:01:34;;;;;;;12.00;8.97;;;;;;;;;;7370999;19;20920;-45
2022/03/07 12:04:14;;;;;;;12.03;9.20;;;;;;;;;;7359792;19;20945;-46
2022/03/07 12:06:47;;;;;;;11.93;9.50;;;;;;;;;;7369886;19;20933;-46
2022/03/07 12:09:32;;;;;;;10.37;9.27;;;;;;;;;;7372999;19;20383;-46
2022/03/07 12:12:03;;;;;;;10.87;9.77;;;;;;;;;;7369016;19;20869;-46
2022/03/07 12:14:36;;;;;;;10.80;9.50;;;;;;;;;;7362627;19;20387;-46
2022/03/07 12:17:18;;;;;;;14.53;11.07;;;;;;;;;;7361397;19;20914;-47
2022/03/07 12:19:55;;;;;;;10.50;9.40;;;7.90;32.10;;;;;;7374408;19;20392;-46
2022/03/07 12:22:27;;;;;;;11.60;9.63;;;20.80;16.60;;;;;;7377683;19;20371;-46
2022/03/07 12:25:00;;;;;;;12.03;10.10;;;18.40;18.50;;;;;;7366516;19;20376;-46
2022/03/07 12:27:33;;;;;;;10.03;8.43;;;18.50;19.60;;;;;;7367254;19;20387;-46
2022/03/07 12:30:03;;;;;;;9.90;8.90;;;21.40;17.70;;;;;;7366385;19;20464;-46
2022/03/07 12:32:38;;;;;;;9.80;8.80;;;23.70;16.30;;;;;;7377119;19;20388;-46
2022/03/07 12:35:09;;;;;;;11.67;10.57;;;24.40;15.60;;;;;;7378238;19;20408;-47
2022/03/07 12:37:44;;;;;;;11.10;10.10;;;23.30;15.90;;;;;;7381417;19;20379;-47
2022/03/07 12:40:16;;;;;;;9.97;9.00;;;23.40;16.10;;;;;;7365034;19;20441;-47
2022/03/07 12:42:45;;;;;;;11.33;10.33;;;21.90;16.40;;;;;;7376054;19;20383;-47
2022/03/07 12:45:20;;;;;;;10.60;9.60;;;23.20;16.20;;;;;;7375339;19;20408;-47
2022/03/07 12:47:56;;;;;;;10.37;9.40;;;24.80;15.40;;;;;;7376116;19;20388;-47
2022/03/07 12:50:30;;;;;;;10.07;9.17;;;26.00;14.60;;;;;;7374796;19;20412;-48
2022/03/07 12:53:01;;;;;;;9.10;8.30;;;25.60;15.20;;;;;;7380162;19;20379;-48
2022/03/07 12:55:31;;;;;;;11.20;10.03;;;25.10;14.90;;;;;;7376528;19;20878;-48
2022/03/07 12:58:01;;;;;;;10.60;9.40;;;24.30;14.90;;;;;;7374158;19;20766;-48
2022/03/07 13:00:34;;;;;;;10.00;9.10;;;25.40;15.00;;;;;;7372850;19;20957;-49
2022/03/07 13:03:08;;;;;;;11.30;10.30;;;25.20;14.60;;;;;;7377645;19;20725;-49
2022/03/07 13:05:37;;;;;;;11.57;10.40;;;25.00;14.50;;;;;;7374304;19;20897;-49
2022/03/07 13:08:07;;;;;;;10.67;9.10;;;25.60;14.70;;;;;;7380074;19;20383;-49
2022/03/07 13:10:49;;;;;;;10.10;9.20;;;25.90;14.20;;;;;;7375034;19;20361;-49
2022/03/07 13:13:19;;;;;;;8.90;8.00;;;26.50;14.40;;;;;;7374196;19;20448;-49
2022/03/07 13:15:51;;;;;;;10.27;9.27;;;27.50;14.00;;;;;;7371704;19;20376;-50
2022/03/07 13:18:25;;;;;;;9.87;8.97;;;26.70;13.60;;;;;;7350482;19;20997;-50
2022/03/07 13:21:02;;;;;;;11.07;10.03;;;26.40;14.00;;;;;;7376389;19;20997;-49
2022/03/07 13:23:34;;;;;;;10.20;9.30;;;25.40;14.30;;;;;;7376310;19;20383;-49
2022/03/07 13:26:04;;;;;;;10.60;9.60;;;25.10;14.80;;;;;;7376701;19;20380;-48
2022/03/07 13:28:39;;;;;;;9.40;8.50;;;25.40;14.40;;;;;;7375309;19;20364;-48
2022/03/07 13:31:11;;;;;;;9.80;8.90;;;25.50;14.50;;;;;;7374995;19;20805;-49
2022/03/07 13:33:44;;;;;;;9.47;8.63;;;25.60;14.40;;;;;;7374305;19;21238;-48
2022/03/07 13:36:14;;;;;;;11.47;10.37;;;25.60;14.40;;;;;;7365697;19;20480;-49
2022/03/07 13:38:46;;;;;;;10.53;9.53;;;24.60;14.30;;;;;;7378139;19;20391;-48
2022/03/07 13:41:22;;;;;;;11.00;9.90;;;25.10;14.60;;;;;;7379518;19;20948;-49
2022/03/07 13:43:51;;;;;;;10.17;9.17;;;25.00;14.40;;;;;;7370147;19;20827;-49
2022/03/07 13:46:21;;;;;;;10.50;9.60;;;24.70;14.50;;;;;;7375083;19;20937;-49
2022/03/07 13:48:56;;;;;;;10.40;9.50;;;24.70;14.50;;;;;;7375786;19;20373;-49
2022/03/07 13:51:32;;;;;;;10.87;9.87;;;24.80;14.50;;;;;;7371814;19;20376;-49
2022/03/07 13:54:04;;;;;;;9.77;8.97;;;23.90;14.60;;;;;;7369929;19;21010;-49
2022/03/07 13:56:36;;;;;;;10.30;9.30;;;23.60;15.00;;;;;;7370085;19;20380;-49
2022/03/07 13:59:13;;;;;;;11.90;10.70;;;23.10;15.00;;;;;;7372771;19;20394;-49
2022/03/07 14:01:45;;;;;;;10.60;9.70;;;21.80;15.70;;;;;;7362174;19;20380;-48
2022/03/07 14:04:19;;;;;;;10.43;9.43;;;21.90;15.60;;;;;;7369369;19;20363;-49
2022/03/07 14:07:03;;;;;;;10.83;9.87;;;21.90;15.50;;;;;;7374322;19;20395;-49
2022/03/07 14:09:35;;;;;;;11.07;9.97;;;21.30;15.70;;;;;;7366224;19;21394;-50
2022/03/07 14:12:08;;;;;;;10.97;10.07;;;21.50;15.90;;;;;;7373163;19;20377;-49
2022/03/07 14:14:38;;;;;;;9.80;8.90;;;21.10;16.20;;;;;;7372976;19;20368;-49
2022/03/07 14:17:17;;;;;;;10.80;9.70;;;21.20;16.00;;;;;;7373969;19;20373;-49
2022/03/07 14:19:52;;;;;;;11.37;10.20;;;20.90;16.30;;;;;;7376299;19;20964;-47
2022/03/07 14:22:21;;;;;;;11.90;10.73;;;19.80;16.30;;;;;;7375962;19;20771;-47
2022/03/07 14:24:54;;;;;;;12.60;9.97;;;17.90;17.40;;;;;;7375885;19;20734;-47
2022/03/07 14:27:30;;;;;;;10.40;9.40;;;16.10;18.80;;;;;;7376484;19;20377;-47
2022/03/07 14:30:01;;;;;;;11.90;10.17;;;15.40;19.40;;;;;;7378639;19;20368;-46
2022/03/07 14:32:36;;;;;;;11.43;9.50;;;14.70;20.00;;;;;;7374095;19;20392;-47
2022/03/07 14:35:08;;;;;;;11.20;10.10;;;13.70;21.00;;;;;;7367822;19;21050;-48
2022/03/07 14:37:41;;;;;;;11.57;10.47;;;13.40;21.40;;;;;;7366266;19;20387;-48
2022/03/07 14:40:13;;;;;;;10.37;9.00;;;13.10;21.30;;;;;;7370301;19;20479;-47